Time;durP1;ratioP1;P1;durP2;ratioP2;P2;SDS_P1;SDS_P2;PMS_P1;PMS_P2;Temp;Humidity;BMP_temperature;BMP_pressure;BME280_temperature;BME280_humidity;BME280_pressure;Samples;Min_cycle;Max_cycle;Signal;HPM_P1;HPM_P2
2023/03/22 00:00:51;;;;;;;18.02;7.88;;;;;;;10.39;nan;-24107.19;5011655;28;20242;-72
2023/03/22 00:03:17;;;;;;;13.80;6.90;;;;;;;10.42;nan;-24108.03;5011174;28;20235;-74
2023/03/22 00:05:42;;;;;;;19.77;7.22;;;;;;;10.72;nan;-24116.34;5011873;28;20687;-75
2023/03/22 00:08:09;;;;;;;18.08;7.75;;;;;;;10.42;nan;-24108.03;5010311;28;20263;-75
2023/03/22 00:10:36;;;;;;;17.02;7.78;;;;;;;10.28;nan;-24104.22;5011516;28;20355;-71
2023/03/22 00:13:03;;;;;;;14.60;7.78;;;;;;;10.38;nan;-24106.91;5010012;28;20183;-71
2023/03/22 00:15:29;;;;;;;18.52;8.20;;;;;;;10.62;nan;-24113.81;5009020;28;20689;-72
2023/03/22 00:17:57;;;;;;;15.13;7.20;;;;;;;10.62;nan;-24113.81;5011155;28;20171;-73
2023/03/22 00:20:29;;;;;;;15.90;8.33;;;;;;;10.67;nan;-24114.94;5012120;28;20179;-74
2023/03/22 00:22:55;;;;;;;17.97;9.60;;;;;;;10.37;nan;-24106.75;5011855;28;20251;-72
2023/03/22 00:25:20;;;;;;;17.08;8.82;;;;;;;10.28;nan;-24104.22;5018996;28;20242;-73
2023/03/22 00:27:46;;;;;;;21.53;8.63;;;;;;;10.13;nan;-24099.97;5017244;28;20631;-75
2023/03/22 00:30:12;;;;;;;19.47;9.20;;;;;;;10.35;nan;-24106.19;5014611;28;20180;-72
2023/03/22 00:32:37;;;;;;;22.43;8.57;;;;;;;10.47;nan;-24109.59;5017803;28;20259;-72
2023/03/22 00:35:05;;;;;;;30.23;9.10;;;;;;;10.47;nan;-24109.59;5020246;28;20708;-73
2023/03/22 00:37:37;;;;;;;18.47;9.30;;;;;;;10.55;nan;-24111.84;5019480;28;20180;-74
2023/03/22 00:40:07;;;;;;;20.87;9.10;;;;;;;10.32;nan;-24105.34;5021853;28;20172;-74
2023/03/22 00:42:33;;;;;;;17.80;8.20;;;;;;;10.46;nan;-24109.16;5017084;28;20218;-73
2023/03/22 00:44:59;;;;;;;24.10;9.90;;;;;;;10.41;nan;-24107.88;5016582;28;20180;-73
2023/03/22 00:47:25;;;;;;;19.60;8.60;;;;;;;10.34;nan;-24105.91;5016414;28;20183;-72
2023/03/22 00:49:50;;;;;;;22.33;8.60;;;;;;;10.51;nan;-24110.72;5018545;28;20183;-72
2023/03/22 00:52:15;;;;;;;16.38;9.18;;;;;;;10.13;nan;-24100.13;5019100;28;20203;-72
2023/03/22 00:54:41;;;;;;;16.13;7.83;;;;;;;10.49;nan;-24110.00;5016271;28;20609;-72
2023/03/22 00:57:06;;;;;;;21.13;9.25;;;;;;;10.18;nan;-24101.41;5016158;28;20184;-75
2023/03/22 00:59:37;;;;;;;16.10;9.18;;;;;;;10.19;nan;-24101.69;5015314;28;20179;-71
2023/03/22 01:02:04;;;;;;;19.75;10.02;;;;;;;10.27;nan;-24103.78;5014906;28;20160;-72
2023/03/22 01:04:30;;;;;;;19.45;8.65;;;;;;;10.11;nan;-24099.56;5030112;28;20612;-75
2023/03/22 01:07:00;;;;;;;22.60;9.40;;;;;;;10.47;nan;-24109.59;5015233;28;20179;-72
2023/03/22 01:09:28;;;;;;;16.97;8.13;;;;;;;10.30;nan;-24104.66;5014882;28;20180;-73
2023/03/22 01:11:57;;;;;;;17.30;8.47;;;;;;;10.28;nan;-24104.06;5015017;28;20557;-72
2023/03/22 01:14:24;;;;;;;17.47;7.87;;;;;;;10.06;nan;-24098.16;5014252;28;20207;-75
2023/03/22 01:16:53;;;;;;;15.50;7.97;;;;;;;10.09;nan;-24098.84;5015057;28;20681;-73
2023/03/22 01:19:19;;;;;;;20.33;8.17;;;;;;;10.42;nan;-24108.16;5014680;28;20639;-75
2023/03/22 01:21:45;;;;;;;19.10;8.33;;;;;;;10.30;nan;-24104.66;5014691;28;20207;-73
2023/03/22 01:24:10;;;;;;;16.63;7.80;;;;;;;10.34;nan;-24105.91;5014670;28;20211;-72
2023/03/22 01:26:37;;;;;;;24.37;8.57;;;;;;;10.43;nan;-24108.47;5014439;28;20183;-71
2023/03/22 01:29:04;;;;;;;23.03;8.83;;;;;;;10.12;nan;-24099.69;5014501;28;20592;-72
2023/03/22 01:31:29;;;;;;;15.33;7.83;;;;;;;10.19;nan;-24101.69;5013222;28;20566;-70
2023/03/22 01:33:55;;;;;;;22.87;7.93;;;;;;;10.27;nan;-24103.78;5013886;28;20176;-71
2023/03/22 01:36:20;;;;;;;18.17;8.07;;;;;;;9.98;nan;-24095.88;5013214;28;20643;-73
2023/03/22 01:38:46;;;;;;;19.20;7.97;;;;;;;10.11;nan;-24099.41;5014286;28;20199;-71
2023/03/22 01:41:11;;;;;;;13.87;7.57;;;;;;;10.15;nan;-24100.53;5012777;28;20175;-71
2023/03/22 01:43:36;;;;;;;16.90;7.63;;;;;;;10.15;nan;-24100.53;5014592;28;20206;-75
2023/03/22 01:46:02;;;;;;;16.80;6.77;;;;;;;9.71;nan;-24088.25;5014029;28;20176;-71
2023/03/22 01:48:40;;;;;;;16.37;7.77;;;;;;;9.70;nan;-24088.13;5014193;28;20207;-73
2023/03/22 01:51:10;;;;;;;15.87;7.47;;;;;;;9.98;nan;-24095.88;5016218;28;20552;-72
2023/03/22 01:53:42;;;;;;;14.20;7.33;;;;;;;9.66;nan;-24086.84;5012573;28;20175;-74
2023/03/22 01:56:09;;;;;;;22.97;7.60;;;;;;;9.62;nan;-24085.84;5013664;28;20211;-75
2023/03/22 01:58:36;;;;;;;12.57;7.57;;;;;;;9.86;nan;-24092.50;5014378;28;20269;-73
2023/03/22 02:01:04;;;;;;;23.20;9.23;;;;;;;9.74;nan;-24089.25;5014049;28;20180;-71
2023/03/22 02:03:45;;;;;;;14.93;7.90;;;;;;;9.69;nan;-24087.69;5013781;28;20184;-74
2023/03/22 02:06:11;;;;;;;15.77;8.00;;;;;;;9.27;nan;-24076.09;5013801;28;20263;-72
2023/03/22 02:08:39;;;;;;;17.27;8.47;;;;;;;9.36;nan;-24078.50;5013859;28;20254;-70
2023/03/22 02:11:05;;;;;;;18.80;8.83;;;;;;;9.73;nan;-24088.97;5013849;28;20177;-74
2023/03/22 02:14:08;;;;;;;16.43;7.93;;;;;;;9.75;nan;-24089.53;5013857;28;20365;-72
2023/03/22 02:17:09;;;;;;;14.10;6.60;;;;;;;9.52;nan;-24083.03;5013018;28;20212;-74
2023/03/22 02:20:09;;;;;;;13.60;6.93;;;;;;;9.58;nan;-24084.72;5015397;28;20203;-70
2023/03/22 02:23:05;;;;;;;16.73;7.53;;;;;;;9.65;nan;-24086.72;5013397;28;20164;-72
2023/03/22 02:25:36;;;;;;;15.00;7.40;;;;;;;9.73;nan;-24088.97;5013911;28;20177;-72
2023/03/22 02:28:20;;;;;;;16.50;7.53;;;;;;;9.64;nan;-24086.44;5013887;28;20586;-71
2023/03/22 02:30:58;;;;;;;14.13;7.57;;;;;;;9.37;nan;-24078.78;5013416;28;20178;-73
2023/03/22 02:33:56;;;;;;;14.87;7.80;;;;;;;9.68;nan;-24087.56;5013363;28;20176;-72
2023/03/22 02:36:54;;;;;;;18.83;7.50;;;;;;;9.73;nan;-24088.81;5013581;28;20192;-74
2023/03/22 02:39:48;;;;;;;15.73;8.17;;;;;;;9.77;nan;-24090.09;5011834;28;20175;-73
2023/03/22 02:42:38;;;;;;;11.20;6.70;;;;;;;9.70;nan;-24088.13;5011865;28;20234;-74
2023/03/22 02:45:15;;;;;;;11.63;6.33;;;;;;;9.69;nan;-24087.84;5012999;28;20161;-75
2023/03/22 02:47:56;;;;;;;14.77;7.40;;;;;;;9.45;nan;-24080.91;5013299;28;20164;-73
2023/03/22 02:50:27;;;;;;;17.33;8.33;;;;;;;9.63;nan;-24086.13;5014412;28;20176;-72
2023/03/22 02:53:08;;;;;;;15.53;7.57;;;;;;;9.55;nan;-24083.88;5013057;28;20758;-74
2023/03/22 02:55:43;;;;;;;14.60;7.07;;;;;;;9.71;nan;-24088.25;5013064;28;20641;-72
2023/03/22 02:58:11;;;;;;;12.23;6.93;;;;;;;9.73;nan;-24088.97;5011292;28;20716;-73
2023/03/22 03:00:38;;;;;;;17.40;8.53;;;;;;;9.63;nan;-24086.00;5012767;28;20176;-73
2023/03/22 03:03:11;;;;;;;15.23;8.00;;;;;;;9.81;nan;-24091.09;5012863;28;20267;-72
2023/03/22 03:05:51;;;;;;;16.67;7.27;;;;;;;9.80;nan;-24090.66;5012942;28;20168;-73
2023/03/22 03:08:19;;;;;;;17.17;8.73;;;;;;;9.80;nan;-24090.66;5012765;28;20198;-73
2023/03/22 03:10:46;;;;;;;13.97;7.07;;;;;;;9.83;nan;-24091.50;5012228;28;20179;-71
2023/03/22 03:13:13;;;;;;;15.93;7.70;;;;;;;9.51;nan;-24082.75;5011978;28;20219;-75
2023/03/22 03:15:42;;;;;;;15.27;7.80;;;;;;;9.73;nan;-24088.81;5011217;28;20215;-72
2023/03/22 03:18:33;;;;;;;15.40;7.07;;;;;;;9.76;nan;-24089.81;5012321;28;20180;-72
2023/03/22 03:21:41;;;;;;;15.57;7.03;;;;;;;9.76;nan;-24089.81;5012178;28;20177;-76
2023/03/22 03:24:38;;;;;;;17.63;7.77;;;;;;;9.66;nan;-24086.97;5021477;28;20191;-71
2023/03/22 03:27:43;;;;;;;18.37;8.10;;;;;;;9.81;nan;-24090.94;5012107;28;20176;-74
2023/03/22 03:30:23;;;;;;;13.80;8.00;;;;;;;9.35;nan;-24078.22;5029246;28;20340;-73
2023/03/22 03:32:55;;;;;;;12.13;7.23;;;;;;;9.27;nan;-24075.97;5029175;28;20659;-73
2023/03/22 03:35:26;;;;;;;12.57;7.60;;;;;;;9.68;nan;-24087.41;5010317;28;20211;-74
2023/03/22 03:38:02;;;;;;;16.83;8.53;;;;;;;9.38;nan;-24078.94;5010429;28;20233;-71
2023/03/22 03:40:32;;;;;;;17.77;8.87;;;;;;;9.57;nan;-24084.31;5011866;28;20541;-71
2023/03/22 03:43:01;;;;;;;17.90;8.20;;;;;;;9.22;nan;-24074.56;5012151;28;20156;-70
2023/03/22 03:45:27;;;;;;;15.30;7.60;;;;;;;9.60;nan;-24085.28;5011702;28;20184;-71
2023/03/22 03:47:57;;;;;;;19.63;9.40;;;;;;;9.43;nan;-24080.50;5009578;28;20176;-71
2023/03/22 03:50:24;;;;;;;18.90;7.50;;;;;;;9.15;nan;-24072.56;5010572;28;20329;-71
2023/03/22 03:52:51;;;;;;;21.53;8.43;;;;;;;9.33;nan;-24077.66;5014508;28;20183;-71
2023/03/22 03:55:18;;;;;;;13.00;8.17;;;;;;;9.35;nan;-24078.22;5012133;28;20563;-73
2023/03/22 03:57:43;;;;;;;15.80;7.47;;;;;;;9.07;nan;-24070.44;5011416;28;20463;-74
2023/03/22 04:00:09;;;;;;;12.97;7.27;;;;;;;9.09;nan;-24071.03;5011827;28;20686;-71
2023/03/22 04:02:35;;;;;;;17.20;8.93;;;;;;;9.45;nan;-24081.06;5011643;28;20175;-72
2023/03/22 04:05:00;;;;;;;17.13;8.73;;;;;;;9.31;nan;-24077.25;5012621;28;20555;-73
2023/03/22 04:07:26;;;;;;;18.27;8.33;;;;;;;9.45;nan;-24081.06;5016016;28;20669;-73
2023/03/22 04:09:51;;;;;;;15.53;7.80;;;;;;;8.96;nan;-24067.34;5015702;28;20263;-74
2023/03/22 04:12:16;;;;;;;19.60;7.90;;;;;;;9.08;nan;-24070.59;5016047;28;20559;-73
2023/03/22 04:14:42;;;;;;;15.20;8.00;;;;;;;9.21;nan;-24074.41;5016200;28;20281;-74
2023/03/22 04:17:08;;;;;;;17.87;8.30;;;;;;;9.01;nan;-24068.63;5015772;28;20279;-71
2023/03/22 04:19:34;;;;;;;12.93;7.53;;;;;;;8.86;nan;-24064.66;5015645;28;20673;-73
2023/03/22 04:21:59;;;;;;;13.57;7.17;;;;;;;9.37;nan;-24078.78;5014359;28;20267;-74
2023/03/22 04:24:25;;;;;;;14.33;7.80;;;;;;;9.12;nan;-24071.88;5006674;28;20192;-74
2023/03/22 04:26:54;;;;;;;14.27;7.60;;;;;;;9.06;nan;-24070.16;5002147;28;20189;-72
2023/03/22 04:29:20;;;;;;;13.33;6.90;;;;;;;9.06;nan;-24070.03;5016875;28;20193;-72
2023/03/22 04:31:46;;;;;;;12.67;6.80;;;;;;;8.95;nan;-24066.91;5001412;28;20192;-70
2023/03/22 04:34:12;;;;;;;16.23;8.30;;;;;;;9.03;nan;-24069.19;5000755;28;20595;-74
2023/03/22 04:36:40;;;;;;;15.30;7.43;;;;;;;9.13;nan;-24072.16;5016476;28;20212;-72
2023/03/22 04:39:09;;;;;;;13.67;7.50;;;;;;;9.08;nan;-24070.59;5002904;28;20278;-74
2023/03/22 04:41:35;;;;;;;12.97;6.93;;;;;;;9.04;nan;-24069.47;5017100;28;20594;-73
2023/03/22 04:44:02;;;;;;;16.03;7.67;;;;;;;9.05;nan;-24069.88;5002148;28;20263;-72
2023/03/22 04:46:34;;;;;;;19.03;9.77;;;;;;;9.05;nan;-24069.75;5014839;28;20258;-72
2023/03/22 04:49:00;;;;;;;19.97;11.23;;;;;;;9.10;nan;-24071.16;5000926;28;20243;-74
2023/03/22 04:51:26;;;;;;;22.73;11.70;;;;;;;9.20;nan;-24074.13;5018561;28;20187;-75
2023/03/22 04:53:53;;;;;;;19.60;10.13;;;;;;;9.03;nan;-24069.31;5000925;28;20199;-73
2023/03/22 04:56:19;;;;;;;20.83;9.10;;;;;;;9.29;nan;-24076.53;5015256;28;20235;-74
2023/03/22 04:58:45;;;;;;;16.50;8.80;;;;;;;9.31;nan;-24077.09;5000416;28;20251;-71
2023/03/22 05:01:12;;;;;;;16.03;8.47;;;;;;;9.03;nan;-24069.19;5017217;28;20251;-73
2023/03/22 05:03:38;;;;;;;17.00;9.00;;;;;;;9.46;nan;-24081.34;5015038;28;20217;-73
2023/03/22 05:06:06;;;;;;;15.53;7.53;;;;;;;9.48;nan;-24081.75;5001070;28;20184;-73
2023/03/22 05:08:33;;;;;;;14.43;7.87;;;;;;;9.11;nan;-24071.44;5014855;28;20188;-73
2023/03/22 05:11:08;;;;;;;15.87;7.47;;;;;;;9.21;nan;-24074.41;5004496;28;20215;-71
2023/03/22 05:13:33;;;;;;;14.03;7.90;;;;;;;9.62;nan;-24085.72;5014071;28;20210;-72
2023/03/22 05:15:59;;;;;;;14.50;7.37;;;;;;;9.52;nan;-24082.91;5011438;28;20195;-73
2023/03/22 05:18:25;;;;;;;13.73;7.03;;;;;;;9.51;nan;-24082.75;5009261;28;20247;-71
2023/03/22 05:20:54;;;;;;;14.80;8.03;;;;;;;9.73;nan;-24088.97;5013916;28;20710;-71
2023/03/22 05:23:21;;;;;;;14.63;7.40;;;;;;;9.60;nan;-24085.28;5013731;28;20631;-71
2023/03/22 05:25:49;;;;;;;21.90;7.43;;;;;;;9.43;nan;-24080.34;5014517;28;20191;-71
2023/03/22 05:28:18;;;;;;;17.80;8.93;;;;;;;9.88;nan;-24092.91;5013970;28;20187;-73
2023/03/22 05:30:44;;;;;;;14.00;7.60;;;;;;;9.84;nan;-24091.94;5014273;28;20175;-74
2023/03/22 05:33:10;;;;;;;14.27;7.77;;;;;;;9.85;nan;-24092.22;5014476;28;20200;-73
2023/03/22 05:35:38;;;;;;;18.67;7.83;;;;;;;9.59;nan;-24084.88;5014405;28;20231;-72
2023/03/22 05:38:04;;;;;;;14.23;7.60;;;;;;;9.98;nan;-24095.75;5014239;28;20176;-72
2023/03/22 05:40:30;;;;;;;17.60;8.13;;;;;;;9.72;nan;-24088.69;5014152;28;20172;-70
2023/03/22 05:42:56;;;;;;;12.87;7.37;;;;;;;10.28;nan;-24104.06;5014224;28;20180;-71
2023/03/22 05:45:22;;;;;;;15.10;7.70;;;;;;;10.01;nan;-24096.72;5014277;28;20203;-74
2023/03/22 05:47:48;;;;;;;17.33;8.90;;;;;;;9.72;nan;-24088.53;5013722;28;20662;-71
2023/03/22 05:50:16;;;;;;;19.67;8.73;;;;;;;10.11;nan;-24099.56;5013896;28;20252;-74
2023/03/22 05:52:43;;;;;;;19.60;9.80;;;;;;;10.03;nan;-24097.31;5015383;28;20210;-72
2023/03/22 05:55:11;;;;;;;16.27;9.30;;;;;;;10.05;nan;-24097.88;5012211;28;20202;-74
2023/03/22 05:57:37;;;;;;;17.17;9.50;;;;;;;10.26;nan;-24103.66;5012893;28;20339;-72
2023/03/22 06:00:06;;;;;;;19.70;9.07;;;;;;;10.36;nan;-24106.47;5012111;28;20187;-76
2023/03/22 06:02:31;;;;;;;19.43;9.50;;;;;;;10.26;nan;-24103.66;5013374;28;20204;-73
2023/03/22 06:04:57;;;;;;;15.73;7.70;;;;;;;10.34;nan;-24105.91;5012089;28;20210;-71
2023/03/22 06:07:22;;;;;;;17.53;8.07;;;;;;;10.18;nan;-24101.41;5013220;28;20203;-75
2023/03/22 06:09:49;;;;;;;14.15;7.28;;;;;;;10.49;nan;-24110.16;5013166;28;20172;-76
2023/03/22 06:12:15;;;;;;;18.33;8.17;;;;;;;10.44;nan;-24108.75;5011494;28;20176;-76
2023/03/22 06:14:40;;;;;;;18.95;8.35;;;;;;;10.42;nan;-24108.16;5012993;28;20171;-75
2023/03/22 06:17:05;;;;;;;17.92;8.18;;;;;;;10.29;nan;-24104.50;5011778;28;20186;-76
2023/03/22 06:19:31;;;;;;;18.37;9.20;;;;;;;10.13;nan;-24099.97;5028389;28;20521;-73
2023/03/22 06:21:56;;;;;;;16.77;8.13;;;;;;;10.15;nan;-24100.53;5013473;28;20251;-73
2023/03/22 06:24:22;;;;;;;18.90;8.67;;;;;;;9.83;nan;-24091.66;5012900;28;20264;-74
2023/03/22 06:26:47;;;;;;;17.73;8.27;;;;;;;10.12;nan;-24099.69;5011928;28;20555;-79
2023/03/22 06:29:12;;;;;;;15.00;8.20;;;;;;;9.90;nan;-24093.47;5011421;28;20168;-73
2023/03/22 06:31:38;;;;;;;16.80;8.57;;;;;;;10.12;nan;-24099.84;5014324;28;20176;-74
2023/03/22 06:34:04;;;;;;;14.63;7.33;;;;;;;9.62;nan;-24085.84;5012794;28;20176;-71
2023/03/22 06:36:30;;;;;;;16.73;8.03;;;;;;;9.91;nan;-24093.91;5012275;28;20238;-73
2023/03/22 06:38:59;;;;;;;15.07;8.37;;;;;;;9.50;nan;-24082.31;5027841;28;20172;-72
2023/03/22 06:41:25;;;;;;;11.93;6.43;;;;;;;9.92;nan;-24094.19;5026979;28;20631;-75
2023/03/22 06:43:51;;;;;;;13.70;7.80;;;;;;;9.82;nan;-24091.22;5006643;28;20195;-75
2023/03/22 06:46:16;;;;;;;20.05;9.32;;;;;;;9.81;nan;-24091.09;5043509;28;20238;-73
2023/03/22 06:48:42;;;;;;;18.23;7.77;;;;;;;9.83;nan;-24091.50;5010945;28;20254;-73
2023/03/22 06:51:07;;;;;;;14.67;7.90;;;;;;;9.76;nan;-24089.81;5012740;28;20260;-71
2023/03/22 06:53:33;;;;;;;17.70;8.03;;;;;;;9.67;nan;-24087.13;5014212;28;20183;-72
2023/03/22 06:55:59;;;;;;;17.07;7.43;;;;;;;10.04;nan;-24097.44;5010733;28;20296;-72
2023/03/22 06:58:24;;;;;;;20.57;8.37;;;;;;;9.64;nan;-24086.28;5012277;28;20219;-72
2023/03/22 07:00:51;;;;;;;15.47;7.63;;;;;;;10.35;nan;-24106.19;5012928;28;20702;-72
2023/03/22 07:03:16;;;;;;;16.50;8.10;;;;;;;10.21;nan;-24102.09;5012254;28;20188;-74
2023/03/22 07:05:42;;;;;;;18.37;8.60;;;;;;;10.42;nan;-24108.16;5012349;28;20195;-73
2023/03/22 07:08:07;;;;;;;14.53;7.93;;;;;;;10.23;nan;-24102.81;5012389;28;20255;-73
2023/03/22 07:10:33;;;;;;;14.00;7.70;;;;;;;10.20;nan;-24101.97;5012280;28;20172;-71
2023/03/22 07:12:59;;;;;;;18.40;8.88;;;;;;;10.32;nan;-24105.22;5012991;28;20206;-72
2023/03/22 07:15:24;;;;;;;21.70;8.87;;;;;;;10.51;nan;-24110.72;5018305;28;20254;-72
2023/03/22 07:17:51;;;;;;;18.08;9.80;;;;;;;10.24;nan;-24103.09;5006285;28;20244;-72
2023/03/22 07:20:17;;;;;;;17.17;8.57;;;;;;;10.41;nan;-24107.88;5017895;28;20184;-72
2023/03/22 07:22:43;;;;;;;18.23;8.63;;;;;;;10.44;nan;-24108.75;5018961;28;20266;-72
2023/03/22 07:25:09;;;;;;;18.35;8.75;;;;;;;10.44;nan;-24108.75;5011870;28;20628;-74
2023/03/22 07:27:35;;;;;;;22.80;9.15;;;;;;;10.17;nan;-24101.25;5012095;28;20184;-72
2023/03/22 07:30:02;;;;;;;15.50;9.30;;;;;;;10.39;nan;-24107.31;5012389;28;20172;-74
2023/03/22 07:32:27;;;;;;;17.77;9.60;;;;;;;10.72;nan;-24116.34;5012205;28;20263;-74
2023/03/22 07:34:52;;;;;;;19.83;9.93;;;;;;;10.61;nan;-24113.53;5011325;28;20267;-72
2023/03/22 07:37:18;;;;;;;18.60;8.50;;;;;;;10.31;nan;-24105.06;5011908;28;20513;-73
2023/03/22 07:39:44;;;;;;;22.27;11.13;;;;;;;10.32;nan;-24105.34;5026509;28;20203;-74
2023/03/22 07:42:09;;;;;;;20.17;9.95;;;;;;;10.85;nan;-24120.03;5029154;28;20191;-73
2023/03/22 07:44:35;;;;;;;23.67;10.02;;;;;;;10.66;nan;-24114.66;5027770;28;20191;-73
2023/03/22 07:47:01;;;;;;;22.40;9.50;;;;;;;10.91;nan;-24121.72;5011976;28;20180;-72
2023/03/22 07:49:26;;;;;;;22.00;9.48;;;;;;;11.40;nan;-24135.38;5027147;28;20184;-73
2023/03/22 07:51:52;;;;;;;16.33;7.82;;;;;;;11.31;nan;-24132.84;5013577;28;20662;-73
2023/03/22 07:54:17;;;;;;;21.15;10.15;;;;;;;11.38;nan;-24134.81;5012459;28;20180;-76
2023/03/22 07:56:43;;;;;;;23.05;10.52;;;;;;;11.69;nan;-24143.56;5011030;28;20200;-71
2023/03/22 07:59:09;;;;;;;24.42;9.77;;;;;;;11.83;nan;-24147.38;5011795;28;20589;-74
2023/03/22 08:01:35;;;;;;;21.48;9.73;;;;;;;11.86;nan;-24148.34;5010307;28;20634;-73
2023/03/22 08:04:01;;;;;;;22.23;10.15;;;;;;;11.70;nan;-24143.84;5011631;28;20172;-71
2023/03/22 08:06:26;;;;;;;22.90;10.13;;;;;;;11.77;nan;-24145.69;5010617;28;20176;-74
2023/03/22 08:08:52;;;;;;;21.77;9.50;;;;;;;11.67;nan;-24142.84;5011376;28;20176;-72
2023/03/22 08:11:18;;;;;;;23.67;11.00;;;;;;;11.99;nan;-24151.88;5026241;28;20184;-73
2023/03/22 08:13:44;;;;;;;20.90;10.68;;;;;;;11.89;nan;-24149.19;5011499;28;20164;-75
2023/03/22 08:16:09;;;;;;;21.73;10.68;;;;;;;12.33;nan;-24161.44;5011595;28;20697;-75
2023/03/22 08:18:35;;;;;;;19.73;9.70;;;;;;;12.60;nan;-24168.91;5011362;28;20172;-76
2023/03/22 08:21:00;;;;;;;22.58;10.85;;;;;;;12.34;nan;-24161.72;5011296;28;20186;-74
2023/03/22 08:23:27;;;;;;;17.60;9.80;;;;;;;11.97;nan;-24151.31;5011065;28;20180;-71
2023/03/22 08:25:53;;;;;;;18.48;8.85;;;;;;;11.91;nan;-24149.63;5011635;28;20172;-72
2023/03/22 08:28:19;;;;;;;19.65;9.18;;;;;;;12.10;nan;-24154.97;5011307;28;20632;-77
2023/03/22 08:30:46;;;;;;;21.95;9.30;;;;;;;11.67;nan;-24142.84;5011544;28;20222;-74
2023/03/22 08:33:12;;;;;;;17.65;8.82;;;;;;;11.67;nan;-24143.00;5011501;28;20179;-75
2023/03/22 08:35:37;;;;;;;21.55;9.73;;;;;;;11.88;nan;-24148.91;5011189;28;20199;-72
2023/03/22 08:38:04;;;;;;;15.35;8.13;;;;;;;11.85;nan;-24147.94;5010707;28;20254;-75
2023/03/22 08:40:29;;;;;;;16.45;8.75;;;;;;;11.65;nan;-24142.28;5011321;28;20541;-75
2023/03/22 08:42:55;;;;;;;16.42;8.95;;;;;;;12.05;nan;-24153.56;5011281;28;20187;-72
2023/03/22 08:45:20;;;;;;;18.65;10.45;;;;;;;12.16;nan;-24156.53;5011862;28;20180;-72
2023/03/22 08:47:45;;;;;;;17.02;8.75;;;;;;;12.16;nan;-24156.53;5011629;28;20592;-74
2023/03/22 08:50:12;;;;;;;18.52;8.65;;;;;;;12.32;nan;-24161.16;5026654;28;20636;-72
2023/03/22 08:52:37;;;;;;;20.05;9.10;;;;;;;12.54;nan;-24167.06;5015447;28;20655;-73
2023/03/22 08:55:05;;;;;;;20.45;10.35;;;;;;;12.79;nan;-24174.09;5015712;28;20215;-72
2023/03/22 08:57:30;;;;;;;16.65;8.63;;;;;;;12.74;nan;-24172.69;5014752;28;20224;-73
2023/03/22 08:59:56;;;;;;;18.70;9.02;;;;;;;12.52;nan;-24166.50;5014613;28;20190;-73
2023/03/22 09:02:23;;;;;;;17.80;8.80;;;;;;;12.77;nan;-24173.53;5014759;28;20176;-71
2023/03/22 09:04:50;;;;;;;15.63;8.50;;;;;;;12.69;nan;-24171.44;5015329;28;20678;-74
2023/03/22 09:07:16;;;;;;;21.83;8.40;;;;;;;13.05;nan;-24181.28;5014487;28;20179;-73
2023/03/22 09:09:42;;;;;;;20.60;9.32;;;;;;;12.75;nan;-24173.13;5014805;28;20647;-72
2023/03/22 09:12:08;;;;;;;20.17;8.65;;;;;;;12.92;nan;-24177.63;5014765;28;20180;-73
2023/03/22 09:14:34;;;;;;;16.27;9.05;;;;;;;13.11;nan;-24182.97;5014619;28;20665;-73
2023/03/22 09:16:59;;;;;;;16.48;8.15;;;;;;;13.53;nan;-24194.75;5014588;28;20176;-73
2023/03/22 09:19:25;;;;;;;19.50;8.88;;;;;;;13.47;nan;-24192.94;5014645;28;20175;-73
2023/03/22 09:21:51;;;;;;;19.02;9.07;;;;;;;13.95;nan;-24206.28;5014105;28;20180;-70
2023/03/22 09:24:17;;;;;;;17.52;8.65;;;;;;;14.02;nan;-24208.38;5014492;28;20283;-71
2023/03/22 09:26:42;;;;;;;19.38;8.90;;;;;;;14.13;nan;-24211.47;5013714;28;20278;-74
2023/03/22 09:29:09;;;;;;;18.23;8.23;;;;;;;14.45;nan;-24220.16;5014267;28;20225;-75
2023/03/22 09:31:34;;;;;;;14.75;8.75;;;;;;;14.22;nan;-24213.72;5029250;28;20179;-72
2023/03/22 09:33:59;;;;;;;13.68;7.85;;;;;;;14.08;nan;-24209.91;5014105;28;20172;-71
2023/03/22 09:36:25;;;;;;;18.58;8.20;;;;;;;13.76;nan;-24201.09;5014000;28;20282;-71
2023/03/22 09:38:50;;;;;;;14.82;8.07;;;;;;;13.98;nan;-24207.25;5013984;28;20174;-71
2023/03/22 09:41:26;;;;;;;21.08;8.32;;;;;;;14.18;nan;-24212.59;5013970;28;20580;-74
2023/03/22 09:43:58;;;;;;;16.38;8.32;;;;;;;14.58;nan;-24223.94;5014158;28;20502;-75
2023/03/22 09:46:36;;;;;;;17.50;8.13;;;;;;;14.50;nan;-24221.56;5015096;28;20195;-73
2023/03/22 09:49:06;;;;;;;17.00;8.68;;;;;;;14.78;nan;-24229.28;5014639;28;20254;-74
2023/03/22 09:51:40;;;;;;;23.88;8.93;;;;;;;14.64;nan;-24225.34;5014297;28;20167;-71
2023/03/22 09:54:20;;;;;;;17.52;8.93;;;;;;;14.64;nan;-24225.34;5032047;28;20650;-72
2023/03/22 09:56:57;;;;;;;20.08;8.38;;;;;;;14.30;nan;-24216.09;5026258;28;20646;-75
2023/03/22 09:59:51;;;;;;;18.65;9.32;;;;;;;14.26;nan;-24214.84;5010085;28;20219;-73
2023/03/22 10:02:42;;;;;;;18.88;8.20;;;;;;;14.20;nan;-24213.28;5012935;28;20635;-73
2023/03/22 10:05:52;;;;;;;19.05;7.78;;;;;;;13.95;nan;-24206.28;5012397;28;20235;-72
2023/03/22 10:08:58;;;;;;;16.27;8.13;;;;;;;14.30;nan;-24216.09;5031189;28;20681;-73
2023/03/22 10:11:54;;;;;;;20.33;8.80;;;;;;;14.27;nan;-24215.13;5030714;28;20310;-73
2023/03/22 10:14:33;;;;;;;15.15;8.77;;;;;;;14.63;nan;-24225.22;5013438;28;20275;-73
2023/03/22 10:17:04;;;;;;;21.67;9.70;;;;;;;14.44;nan;-24219.88;5013574;28;20258;-72
2023/03/22 10:19:56;;;;;;;22.38;11.00;;;;;;;14.53;nan;-24222.56;5013615;28;20161;-74
2023/03/22 10:22:28;;;;;;;18.65;9.93;;;;;;;14.95;nan;-24234.19;5014817;28;20187;-74
2023/03/22 10:24:55;;;;;;;22.35;10.15;;;;;;;14.66;nan;-24225.91;5006787;28;20246;-75
2023/03/22 10:27:22;;;;;;;21.08;10.10;;;;;;;14.92;nan;-24233.34;5013769;28;20188;-74
2023/03/22 10:30:02;;;;;;;18.63;9.07;;;;;;;14.89;nan;-24232.38;5013294;28;20169;-73
2023/03/22 10:32:44;;;;;;;23.52;8.82;;;;;;;15.43;nan;-24247.50;5013316;28;20190;-75
2023/03/22 10:35:14;;;;;;;25.48;9.98;;;;;;;15.52;nan;-24249.88;5012897;28;20207;-73
2023/03/22 10:37:41;;;;;;;20.55;8.38;;;;;;;15.46;nan;-24248.19;5013326;28;20215;-74
2023/03/22 10:40:16;;;;;;;17.05;8.48;;;;;;;15.70;nan;-24254.78;5013525;28;20187;-72
2023/03/22 10:42:49;;;;;;;16.15;7.47;;;;;;;15.62;nan;-24252.69;5012926;28;20186;-74
2023/03/22 10:45:14;;;;;;;13.88;6.60;;;;;;;16.01;nan;-24263.31;5012626;28;20211;-71
2023/03/22 10:47:56;;;;;;;14.43;6.43;;;;;;;15.88;nan;-24259.81;5012575;28;20263;-71
2023/03/22 10:50:28;;;;;;;11.70;6.22;;;;;;;15.93;nan;-24261.06;5013427;28;20187;-73
2023/03/22 10:53:10;;;;;;;10.68;6.53;;;;;;;16.28;nan;-24271.00;5027922;28;20580;-75
2023/03/22 10:55:40;;;;;;;12.55;6.38;;;;;;;16.20;nan;-24268.63;5013802;28;20196;-74
2023/03/22 10:58:13;;;;;;;15.15;7.47;;;;;;;15.76;nan;-24256.59;5012207;28;20281;-71
2023/03/22 11:01:03;;;;;;;12.70;5.30;;;;;;;16.07;nan;-24265.13;5012567;28;20223;-72
2023/03/22 11:03:28;;;;;;;10.75;5.80;;;;;;;15.73;nan;-24255.75;5010925;28;20658;-73
2023/03/22 11:06:28;;;;;;;13.02;6.63;;;;;;;15.75;nan;-24256.31;5012523;28;20176;-74
2023/03/22 11:09:00;;;;;;;12.50;5.50;;;;;;;15.35;nan;-24245.13;5010958;28;20175;-72
2023/03/22 11:11:33;;;;;;;13.23;5.88;;;;;;;15.59;nan;-24251.84;5010895;28;20259;-75
2023/03/22 11:13:58;;;;;;;9.90;5.53;;;;;;;15.67;nan;-24254.06;5010790;28;20222;-74
2023/03/22 11:16:24;;;;;;;7.97;4.93;;;;;;;15.78;nan;-24257.16;5012333;28;20242;-75
2023/03/22 11:18:50;;;;;;;8.48;4.82;;;;;;;15.63;nan;-24252.81;5012021;28;20263;-74
2023/03/22 11:21:16;;;;;;;14.93;6.35;;;;;;;15.72;nan;-24255.34;5012433;28;20172;-74
2023/03/22 11:23:59;;;;;;;14.55;5.70;;;;;;;15.70;nan;-24254.91;5010547;28;20717;-72
2023/03/22 11:26:33;;;;;;;11.95;6.68;;;;;;;15.72;nan;-24255.34;5011876;28;20273;-74
2023/03/22 11:29:18;;;;;;;11.30;6.35;;;;;;;15.57;nan;-24251.28;5012158;28;20226;-73
2023/03/22 11:31:58;;;;;;;13.95;7.03;;;;;;;15.46;nan;-24248.19;5012298;28;20183;-75
2023/03/22 11:34:27;;;;;;;12.75;6.40;;;;;;;15.10;nan;-24238.25;5013007;28;20164;-74
2023/03/22 11:36:55;;;;;;;11.98;6.07;;;;;;;15.15;nan;-24239.50;5010176;28;20254;-75
2023/03/22 11:39:28;;;;;;;14.55;6.22;;;;;;;15.35;nan;-24245.13;5011308;28;20180;-73
2023/03/22 11:42:05;;;;;;;9.55;5.32;;;;;;;15.13;nan;-24238.94;5011070;28;20283;-73
2023/03/22 11:44:34;;;;;;;9.55;5.90;;;;;;;15.53;nan;-24250.16;5011031;28;20266;-73
2023/03/22 11:47:03;;;;;;;12.10;5.72;;;;;;;15.52;nan;-24249.75;5004701;28;20267;-74
2023/03/22 11:49:50;;;;;;;13.35;5.90;;;;;;;15.59;nan;-24251.69;5011272;28;20184;-75